Time;durP1;ratioP1;P1;durP2;ratioP2;P2;SDS_P1;SDS_P2;PMS_P1;PMS_P2;Temp;Humidity;BMP_temperature;BMP_pressure;BME280_temperature;BME280_humidity;BME280_pressure;Samples;Min_cycle;Max_cycle;Signal;HPM_P1;HPM_P2
2021/09/20 00:00:32;;;;;;;2.20;1.80;;;15.20;98.00;;;;;;5013118;28;20541;-70
2021/09/20 00:03:00;;;;;;;1.53;1.30;;;15.10;98.00;;;;;;5013104;28;20485;-72
2021/09/20 00:05:29;;;;;;;1.53;1.50;;;15.20;98.00;;;;;;5013028;28;20958;-73
2021/09/20 00:07:59;;;;;;;1.40;1.33;;;15.20;98.00;;;;;;5012988;28;20526;-71
2021/09/20 00:10:26;;;;;;;1.50;1.20;;;15.20;98.00;;;;;;5013094;28;20466;-71
2021/09/20 00:12:55;;;;;;;2.30;1.73;;;15.00;98.00;;;;;;5012917;28;20498;-70
2021/09/20 00:15:23;;;;;;;1.60;1.50;;;14.90;98.00;;;;;;5012817;28;20493;-71
2021/09/20 00:17:52;;;;;;;2.23;1.87;;;14.80;98.00;;;;;;5012952;28;20494;-73
2021/09/20 00:20:19;;;;;;;2.50;1.87;;;14.70;98.00;;;;;;5012814;28;20533;-72
2021/09/20 00:22:47;;;;;;;1.60;1.50;;;14.80;98.00;;;;;;5012803;28;20865;-73
2021/09/20 00:25:14;;;;;;;1.50;1.40;;;14.80;98.00;;;;;;5012901;28;20500;-72
2021/09/20 00:27:41;;;;;;;2.47;1.97;;;14.80;98.00;;;;;;5012529;28;20537;-72
2021/09/20 00:30:09;;;;;;;1.80;1.53;;;14.80;98.00;;;;;;5012928;28;20552;-72
2021/09/20 00:32:37;;;;;;;1.73;1.40;;;14.90;98.00;;;;;;5012320;28;20531;-71
2021/09/20 00:35:06;;;;;;;2.17;1.50;;;15.00;98.00;;;;;;5012303;28;20462;-71
2021/09/20 00:37:33;;;;;;;1.30;1.10;;;14.90;98.00;;;;;;5012414;28;20462;-72
2021/09/20 00:40:02;;;;;;;1.63;1.50;;;15.00;98.00;;;;;;5011018;28;20466;-71
2021/09/20 00:42:29;;;;;;;1.20;1.20;;;15.00;98.00;;;;;;5012185;28;20529;-71
2021/09/20 00:44:57;;;;;;;1.73;1.63;;;14.80;98.00;;;;;;5012213;28;20463;-71
2021/09/20 00:47:24;;;;;;;1.40;1.10;;;14.80;98.00;;;;;;5010969;28;20569;-71
2021/09/20 00:49:51;;;;;;;2.00;1.67;;;14.60;98.00;;;;;;5012113;28;20471;-71
2021/09/20 00:52:18;;;;;;;1.77;1.43;;;14.60;98.00;;;;;;5012048;28;20506;-71
2021/09/20 00:54:45;;;;;;;1.47;1.20;;;14.50;98.00;;;;;;5012198;28;20467;-71
2021/09/20 00:57:14;;;;;;;1.70;1.50;;;14.50;98.00;;;;;;5010731;28;20486;-72
2021/09/20 00:59:41;;;;;;;2.07;1.60;;;14.60;98.00;;;;;;5011859;28;20589;-71
2021/09/20 01:02:10;;;;;;;2.10;1.37;;;14.80;98.00;;;;;;5011925;28;20498;-71
2021/09/20 01:04:37;;;;;;;2.33;1.40;;;14.80;98.00;;;;;;5010916;28;20465;-71
2021/09/20 01:07:09;;;;;;;1.93;1.60;;;14.90;98.00;;;;;;5011968;28;21192;-71
2021/09/20 01:09:40;;;;;;;2.40;1.30;;;14.90;98.00;;;;;;5011873;28;20458;-71
2021/09/20 01:12:08;;;;;;;1.40;1.30;;;15.00;98.00;;;;;;5011959;28;20551;-72
2021/09/20 01:14:36;;;;;;;1.90;1.47;;;14.90;98.00;;;;;;5011836;28;20513;-72
2021/09/20 01:17:04;;;;;;;1.40;1.27;;;14.90;98.00;;;;;;5011649;28;20491;-71
2021/09/20 01:19:32;;;;;;;1.83;1.60;;;15.00;98.00;;;;;;5011978;28;20491;-70
2021/09/20 01:22:02;;;;;;;1.40;1.27;;;15.00;98.00;;;;;;5011705;28;20972;-71
2021/09/20 01:24:31;;;;;;;1.30;1.17;;;15.00;98.00;;;;;;5012004;28;20467;-71
2021/09/20 01:27:01;;;;;;;1.77;1.50;;;14.90;98.00;;;;;;5011514;28;20582;-71
2021/09/20 01:29:28;;;;;;;1.97;1.63;;;14.80;98.00;;;;;;5011778;28;20459;-71
2021/09/20 01:31:57;;;;;;;1.77;1.70;;;14.80;98.00;;;;;;5011676;28;20462;-70
2021/09/20 01:34:25;;;;;;;1.40;1.20;;;14.80;98.00;;;;;;5011814;28;20542;-71
2021/09/20 01:36:52;;;;;;;2.07;1.67;;;15.00;98.00;;;;;;5011676;28;20460;-72
2021/09/20 01:39:22;;;;;;;1.20;1.10;;;15.00;98.00;;;;;;5011740;28;20824;-71
2021/09/20 01:41:51;;;;;;;1.20;1.10;;;15.00;98.00;;;;;;5011609;28;20494;-71
2021/09/20 01:44:19;;;;;;;2.40;1.67;;;14.90;98.00;;;;;;5011965;28;20454;-70
2021/09/20 01:46:48;;;;;;;3.30;2.00;;;14.90;98.00;;;;;;5011558;28;20971;-71
2021/09/20 01:49:16;;;;;;;1.70;1.53;;;14.90;98.00;;;;;;5011574;28;21051;-72
2021/09/20 01:51:43;;;;;;;1.30;1.20;;;14.90;98.00;;;;;;5011531;28;20462;-71
2021/09/20 01:54:10;;;;;;;1.50;1.30;;;14.90;98.00;;;;;;5011210;28;20483;-70
2021/09/20 01:56:37;;;;;;;1.30;1.20;;;14.90;98.00;;;;;;5011363;28;20458;-71
2021/09/20 01:59:06;;;;;;;1.37;1.37;;;14.90;98.00;;;;;;5012000;28;20491;-71
2021/09/20 02:01:33;;;;;;;1.20;1.10;;;14.90;98.00;;;;;;5015154;28;20545;-72
2021/09/20 02:04:01;;;;;;;1.20;1.00;;;14.80;98.00;;;;;;5015326;28;20535;-71
2021/09/20 02:06:28;;;;;;;1.80;1.40;;;14.80;98.00;;;;;;5015183;28;20455;-71
2021/09/20 02:08:55;;;;;;;1.50;1.20;;;14.90;98.00;;;;;;5014993;28;20485;-72
2021/09/20 02:11:24;;;;;;;1.73;1.30;;;14.90;98.00;;;;;;5015059;28;21023;-70
2021/09/20 02:13:53;;;;;;;1.50;1.47;;;14.90;98.00;;;;;;5012645;28;21082;-71
2021/09/20 02:16:23;;;;;;;1.60;1.30;;;15.00;98.00;;;;;;5015042;28;20463;-71
2021/09/20 02:18:50;;;;;;;2.07;1.40;;;15.10;98.00;;;;;;5014921;28;20811;-71
2021/09/20 02:21:17;;;;;;;1.60;1.30;;;15.10;98.00;;;;;;5015082;28;20877;-71
2021/09/20 02:23:44;;;;;;;1.20;1.10;;;15.00;98.00;;;;;;5015018;28;20526;-71
2021/09/20 02:26:11;;;;;;;2.23;1.53;;;15.10;98.00;;;;;;5014784;28;20459;-71
2021/09/20 02:28:39;;;;;;;1.63;1.50;;;15.10;98.00;;;;;;5014599;28;20493;-71
2021/09/20 02:31:07;;;;;;;1.40;1.33;;;15.00;98.00;;;;;;5014647;28;20497;-70
2021/09/20 02:33:36;;;;;;;1.40;1.20;;;14.80;98.00;;;;;;5014637;28;20552;-71
2021/09/20 02:36:04;;;;;;;1.30;1.20;;;14.70;98.00;;;;;;5014743;28;20505;-70
2021/09/20 02:38:34;;;;;;;1.87;1.30;;;14.60;98.00;;;;;;5014512;28;20539;-70
2021/09/20 02:41:01;;;;;;;1.30;1.10;;;14.60;98.00;;;;;;5014696;28;20463;-71
2021/09/20 02:43:29;;;;;;;1.80;1.70;;;14.70;98.00;;;;;;5014541;28;20520;-71
2021/09/20 02:45:56;;;;;;;2.10;1.83;;;14.80;98.00;;;;;;5014380;28;20511;-71
2021/09/20 02:48:23;;;;;;;2.27;1.40;;;14.80;98.00;;;;;;5014414;28;20529;-71
2021/09/20 02:50:51;;;;;;;2.30;1.77;;;14.70;98.00;;;;;;5014558;28;20550;-70
2021/09/20 02:53:19;;;;;;;1.50;1.50;;;14.60;98.00;;;;;;5014360;28;20474;-72
2021/09/20 02:55:46;;;;;;;1.63;1.20;;;14.50;98.00;;;;;;5014280;28;20494;-71
2021/09/20 02:58:13;;;;;;;1.57;1.27;;;14.50;98.00;;;;;;5014281;28;20909;-71
2021/09/20 03:00:40;;;;;;;2.00;1.57;;;14.60;98.00;;;;;;5014490;28;20491;-72
2021/09/20 03:03:08;;;;;;;1.80;1.37;;;14.70;98.00;;;;;;5014303;28;20458;-71
2021/09/20 03:05:35;;;;;;;2.17;1.80;;;14.70;98.00;;;;;;5014526;28;20455;-71
2021/09/20 03:08:06;;;;;;;2.03;1.60;;;14.70;98.00;;;;;;5014351;28;20818;-72
2021/09/20 03:10:33;;;;;;;2.17;1.30;;;14.70;98.00;;;;;;5013404;28;21080;-71
2021/09/20 03:13:01;;;;;;;1.80;1.40;;;14.60;98.00;;;;;;5013353;28;20488;-71
2021/09/20 03:15:29;;;;;;;1.20;1.10;;;14.60;98.00;;;;;;5013732;28;20498;-71
2021/09/20 03:17:56;;;;;;;1.67;1.60;;;14.50;98.00;;;;;;5012675;28;20800;-71
2021/09/20 03:20:23;;;;;;;1.80;1.57;;;14.50;98.00;;;;;;5013947;28;20859;-71
2021/09/20 03:22:50;;;;;;;2.63;1.80;;;14.50;98.00;;;;;;5012482;28;20961;-70
2021/09/20 03:25:20;;;;;;;1.40;1.33;;;14.50;98.00;;;;;;5013740;28;21020;-71
2021/09/20 03:27:48;;;;;;;1.97;1.40;;;14.50;98.00;;;;;;5013478;28;20562;-71
2021/09/20 03:30:16;;;;;;;4.00;1.67;;;14.70;98.00;;;;;;5013514;28;20450;-71
2021/09/20 03:32:44;;;;;;;1.20;1.10;;;14.60;98.00;;;;;;5013335;28;20992;-71
2021/09/20 03:35:14;;;;;;;2.43;1.43;;;14.60;98.00;;;;;;5013528;28;20495;-71
2021/09/20 03:37:41;;;;;;;1.50;1.10;;;14.70;98.00;;;;;;5013389;28;20959;-71
2021/09/20 03:40:10;;;;;;;3.00;1.83;;;14.70;98.00;;;;;;5013334;28;20509;-71
2021/09/20 03:42:39;;;;;;;1.57;1.40;;;14.50;98.00;;;;;;5013347;28;20491;-71
2021/09/20 03:45:07;;;;;;;3.00;2.03;;;14.50;98.00;;;;;;5013437;28;20454;-71
2021/09/20 03:47:35;;;;;;;2.73;1.40;;;14.50;98.00;;;;;;5013247;28;20552;-70
2021/09/20 03:50:05;;;;;;;2.80;1.27;;;14.50;98.00;;;;;;5013282;28;20975;-71
2021/09/20 03:52:32;;;;;;;2.03;1.47;;;14.50;98.00;;;;;;5013134;28;20478;-71
2021/09/20 03:54:59;;;;;;;1.63;1.57;;;14.50;98.00;;;;;;5013095;28;20466;-71
2021/09/20 03:57:26;;;;;;;1.87;1.20;;;14.40;98.00;;;;;;5013087;28;20513;-71
2021/09/20 03:59:55;;;;;;;2.07;1.47;;;14.30;98.00;;;;;;5013188;28;20467;-71
2021/09/20 04:02:22;;;;;;;1.83;1.60;;;14.30;98.00;;;;;;5013124;28;20485;-71
2021/09/20 04:04:49;;;;;;;1.30;1.20;;;14.40;98.00;;;;;;5013342;28;20489;-71
2021/09/20 04:07:16;;;;;;;2.40;1.50;;;14.50;98.00;;;;;;5012826;28;20624;-71
2021/09/20 04:09:44;;;;;;;1.70;1.67;;;14.40;98.00;;;;;;5012955;28;20961;-70
2021/09/20 04:12:11;;;;;;;1.30;1.30;;;14.40;98.00;;;;;;5012943;28;20902;-70
2021/09/20 04:14:38;;;;;;;1.60;1.20;;;14.40;98.00;;;;;;5013277;28;20463;-71
2021/09/20 04:17:08;;;;;;;1.50;1.33;;;14.50;98.00;;;;;;5012778;28;20537;-70
2021/09/20 04:19:35;;;;;;;1.20;1.20;;;14.60;98.00;;;;;;5012954;28;20460;-71
2021/09/20 04:22:03;;;;;;;1.87;1.47;;;14.60;98.00;;;;;;5012680;28;20505;-72
2021/09/20 04:24:31;;;;;;;1.60;1.40;;;14.60;98.00;;;;;;5012788;28;20493;-71
2021/09/20 04:26:59;;;;;;;1.53;1.40;;;14.50;98.00;;;;;;5012784;28;20463;-71
2021/09/20 04:29:26;;;;;;;1.57;1.17;;;14.30;98.00;;;;;;5012664;28;20563;-72
2021/09/20 04:31:53;;;;;;;2.07;1.50;;;14.30;98.00;;;;;;5012518;28;20961;-71
2021/09/20 04:34:23;;;;;;;1.60;1.30;;;14.30;98.00;;;;;;5011458;28;20498;-70
2021/09/20 04:36:52;;;;;;;1.60;1.20;;;14.20;98.00;;;;;;5012402;28;20454;-72
2021/09/20 04:39:19;;;;;;;1.47;1.40;;;14.20;98.00;;;;;;5011101;28;20474;-72
2021/09/20 04:41:46;;;;;;;2.17;1.70;;;14.10;98.00;;;;;;5012307;28;20537;-70
2021/09/20 04:44:13;;;;;;;1.47;1.40;;;14.20;98.00;;;;;;5012255;28;20461;-71
2021/09/20 04:46:40;;;;;;;1.97;1.40;;;14.30;98.00;;;;;;5012176;28;20861;-71
2021/09/20 04:49:07;;;;;;;1.43;1.37;;;14.30;98.00;;;;;;5012019;28;20493;-71
2021/09/20 04:51:36;;;;;;;1.37;1.23;;;14.30;98.00;;;;;;5012156;28;20466;-71
2021/09/20 04:54:03;;;;;;;1.40;1.40;;;14.30;98.00;;;;;;5011644;28;20496;-70
2021/09/20 04:56:30;;;;;;;2.30;1.47;;;14.40;98.00;;;;;;5012090;28;21012;-70
2021/09/20 04:58:58;;;;;;;1.20;1.10;;;14.50;98.00;;;;;;5011731;28;20494;-71
2021/09/20 05:01:25;;;;;;;1.97;1.43;;;14.50;98.00;;;;;;5011745;28;20892;-71
2021/09/20 05:03:55;;;;;;;2.07;1.30;;;14.60;98.00;;;;;;5011945;28;20522;-70
2021/09/20 05:06:22;;;;;;;2.60;1.30;;;14.60;98.00;;;;;;5011816;28;20557;-70
2021/09/20 05:08:50;;;;;;;1.90;1.17;;;14.50;98.00;;;;;;5011645;28;21029;-70
2021/09/20 05:11:17;;;;;;;1.40;1.20;;;14.50;98.00;;;;;;5012024;28;20505;-71
2021/09/20 05:13:45;;;;;;;1.30;1.20;;;14.50;98.00;;;;;;5011816;28;20509;-70
2021/09/20 05:16:12;;;;;;;1.73;1.47;;;14.50;98.00;;;;;;5011987;28;20470;-71
2021/09/20 05:18:39;;;;;;;1.50;1.30;;;14.40;98.00;;;;;;5010436;28;20505;-72
2021/09/20 05:21:06;;;;;;;1.60;1.43;;;14.40;98.00;;;;;;5011608;28;20552;-71
2021/09/20 05:23:33;;;;;;;2.07;1.20;;;14.40;98.00;;;;;;5010329;28;20522;-71
2021/09/20 05:26:03;;;;;;;1.97;1.30;;;14.30;98.00;;;;;;5011709;28;20504;-71
2021/09/20 05:28:30;;;;;;;1.80;1.50;;;14.20;98.00;;;;;;5011582;28;20485;-72
2021/09/20 05:30:58;;;;;;;1.60;1.37;;;14.20;98.00;;;;;;5011677;28;20453;-71
2021/09/20 05:33:24;;;;;;;1.20;1.00;;;14.30;98.00;;;;;;5011321;28;20502;-72
2021/09/20 05:35:59;;;;;;;1.80;1.50;;;14.30;98.00;;;;;;5011435;28;20968;-71
2021/09/20 05:38:26;;;;;;;1.30;1.10;;;14.50;98.00;;;;;;5010414;28;20470;-71
2021/09/20 05:40:53;;;;;;;1.83;1.53;;;14.60;98.00;;;;;;5011685;28;20463;-71
2021/09/20 05:43:21;;;;;;;1.50;1.30;;;14.50;98.00;;;;;;5009721;28;20548;-72
2021/09/20 05:45:49;;;;;;;2.13;1.37;;;14.50;98.00;;;;;;5011254;28;20493;-71
2021/09/20 05:48:18;;;;;;;1.30;1.20;;;14.60;98.00;;;;;;5011068;28;20595;-71
2021/09/20 05:50:46;;;;;;;1.70;1.33;;;14.60;98.00;;;;;;5011509;28;20575;-71
2021/09/20 05:53:13;;;;;;;1.30;1.10;;;14.60;98.00;;;;;;5011599;28;20522;-71
2021/09/20 05:55:40;;;;;;;1.73;1.50;;;14.50;98.00;;;;;;5011666;28;20498;-71
2021/09/20 05:58:08;;;;;;;1.87;1.30;;;14.50;98.00;;;;;;5011312;28;21188;-72
2021/09/20 06:00:36;;;;;;;2.03;1.80;;;14.70;98.00;;;;;;5011451;28;20470;-71
2021/09/20 06:03:03;;;;;;;1.80;1.30;;;14.60;98.00;;;;;;5011271;28;20458;-72
2021/09/20 06:05:30;;;;;;;1.30;1.27;;;14.70;98.00;;;;;;5011246;28;20512;-70
2021/09/20 06:07:57;;;;;;;1.50;1.20;;;14.70;98.00;;;;;;5011004;28;20490;-71
2021/09/20 06:10:24;;;;;;;2.37;1.77;;;14.70;98.00;;;;;;5011234;28;20614;-71
2021/09/20 06:12:51;;;;;;;2.83;1.60;;;14.70;98.00;;;;;;5011094;28;20459;-71
2021/09/20 06:15:18;;;;;;;1.60;1.20;;;14.70;98.00;;;;;;5011205;28;20889;-72
2021/09/20 06:17:46;;;;;;;1.30;1.23;;;14.80;98.00;;;;;;5011083;28;21021;-71
2021/09/20 06:20:14;;;;;;;1.40;1.40;;;14.70;98.00;;;;;;5011015;28;20469;-71
2021/09/20 06:22:41;;;;;;;2.13;1.67;;;14.70;98.00;;;;;;5011054;28;20527;-71
2021/09/20 06:25:10;;;;;;;1.87;1.30;;;14.80;98.00;;;;;;5011048;28;20525;-72
2021/09/20 06:27:38;;;;;;;1.60;1.30;;;14.90;98.00;;;;;;5010935;28;20795;-70
2021/09/20 06:30:09;;;;;;;1.70;1.40;;;15.00;98.00;;;;;;5010966;28;20520;-72
2021/09/20 06:32:36;;;;;;;1.57;1.47;;;15.00;98.00;;;;;;5011149;28;20543;-71
2021/09/20 06:35:06;;;;;;;1.50;1.40;;;15.00;98.00;;;;;;5010954;28;20470;-71
2021/09/20 06:37:33;;;;;;;2.20;1.67;;;14.90;98.00;;;;;;5011015;28;20458;-72
2021/09/20 06:40:00;;;;;;;2.33;1.40;;;14.90;98.00;;;;;;5010846;28;20490;-71
2021/09/20 06:42:27;;;;;;;2.63;1.90;;;14.90;98.00;;;;;;5010998;28;20465;-71
2021/09/20 06:44:54;;;;;;;1.40;1.30;;;14.90;98.00;;;;;;5011287;28;20457;-71
2021/09/20 06:47:22;;;;;;;2.23;1.60;;;14.80;98.00;;;;;;5014605;28;20824;-71
2021/09/20 06:49:50;;;;;;;2.33;1.77;;;14.90;98.00;;;;;;5014115;28;20882;-73
2021/09/20 06:52:19;;;;;;;1.63;1.40;;;14.90;98.00;;;;;;5014276;28;20514;-73
2021/09/20 06:54:46;;;;;;;1.50;1.23;;;15.00;98.00;;;;;;5014259;28;20543;-72
2021/09/20 06:57:13;;;;;;;1.53;1.37;;;15.00;98.00;;;;;;5014350;28;20925;-72
2021/09/20 06:59:40;;;;;;;1.23;1.17;;;15.00;98.00;;;;;;5014332;28;20485;-72
2021/09/20 07:02:08;;;;;;;2.17;1.40;;;14.90;98.00;;;;;;5014269;28;20484;-72
2021/09/20 07:04:35;;;;;;;2.20;1.53;;;14.90;98.00;;;;;;5014018;28;20528;-72
2021/09/20 07:07:02;;;;;;;2.37;1.50;;;14.90;98.00;;;;;;5009731;28;20855;-70
2021/09/20 07:09:31;;;;;;;2.07;1.60;;;15.00;98.00;;;;;;5011596;28;20505;-70
2021/09/20 07:11:58;;;;;;;1.50;1.40;;;15.10;98.00;;;;;;5011791;28;20496;-72
2021/09/20 07:14:24;;;;;;;1.70;1.50;;;15.20;98.00;;;;;;5011547;28;20907;-72
2021/09/20 07:16:51;;;;;;;2.63;1.53;;;15.20;98.00;;;;;;5011800;28;20462;-72
2021/09/20 07:19:18;;;;;;;1.70;1.50;;;15.30;98.00;;;;;;5011692;28;20548;-70
2021/09/20 07:21:46;;;;;;;2.00;1.57;;;15.10;98.00;;;;;;5010043;28;20498;-71
2021/09/20 07:24:13;;;;;;;1.60;1.30;;;15.10;98.00;;;;;;5010016;28;20543;-71
2021/09/20 07:26:41;;;;;;;1.50;1.30;;;15.10;98.00;;;;;;5011455;28;20460;-71
2021/09/20 07:29:09;;;;;;;1.57;1.50;;;15.10;98.00;;;;;;5010840;28;21068;-72
2021/09/20 07:31:36;;;;;;;1.70;1.60;;;15.10;98.00;;;;;;5011218;28;21028;-71
2021/09/20 07:34:03;;;;;;;1.60;1.30;;;15.10;98.00;;;;;;5009836;28;20511;-72
2021/09/20 07:36:30;;;;;;;1.30;1.20;;;15.10;98.00;;;;;;5011262;28;20453;-70
2021/09/20 07:38:57;;;;;;;1.70;1.70;;;15.10;98.00;;;;;;5011095;28;20470;-71
2021/09/20 07:41:24;;;;;;;2.10;1.83;;;15.10;98.00;;;;;;5010645;28;20801;-71
2021/09/20 07:43:53;;;;;;;1.40;1.40;;;15.30;98.00;;;;;;5010739;28;20517;-72
2021/09/20 07:46:22;;;;;;;1.70;1.30;;;15.30;98.00;;;;;;5010620;28;20497;-72
2021/09/20 07:48:49;;;;;;;1.80;1.47;;;15.20;98.00;;;;;;5010371;28;21075;-72
2021/09/20 07:51:17;;;;;;;1.63;1.33;;;15.30;98.00;;;;;;5008629;28;20469;-72
2021/09/20 07:53:44;;;;;;;1.53;1.43;;;15.50;98.00;;;;;;5010346;28;20987;-74
2021/09/20 07:56:12;;;;;;;1.90;1.40;;;15.50;98.00;;;;;;5009080;28;20556;-73
2021/09/20 07:58:41;;;;;;;6.40;2.53;;;15.50;98.00;;;;;;5010045;28;20473;-70
2021/09/20 08:01:11;;;;;;;2.10;1.47;;;15.50;98.00;;;;;;5010077;28;20789;-70
2021/09/20 08:03:38;;;;;;;1.30;1.30;;;15.40;98.00;;;;;;5010098;28;21008;-72
2021/09/20 08:06:07;;;;;;;2.07;1.70;;;15.60;98.00;;;;;;5008984;28;20494;-70
2021/09/20 08:08:34;;;;;;;1.30;1.20;;;15.50;98.00;;;;;;5009752;28;20518;-70
2021/09/20 08:11:01;;;;;;;2.73;1.60;;;15.40;98.00;;;;;;5012583;28;20480;-70
2021/09/20 08:13:28;;;;;;;1.73;1.70;;;15.60;98.00;;;;;;5010174;28;20517;-72
2021/09/20 08:15:55;;;;;;;1.87;1.77;;;15.50;98.00;;;;;;5010284;28;20551;-72
2021/09/20 08:18:23;;;;;;;1.77;1.57;;;15.50;98.00;;;;;;5008779;28;20949;-72
2021/09/20 08:20:51;;;;;;;2.67;1.60;;;15.50;98.00;;;;;;5009993;28;20496;-72
2021/09/20 08:23:18;;;;;;;2.53;1.70;;;15.60;98.00;;;;;;5009858;28;20458;-72
2021/09/20 08:25:46;;;;;;;1.93;1.80;;;15.50;98.00;;;;;;5010005;28;20497;-71
2021/09/20 08:28:13;;;;;;;1.30;1.23;;;15.50;98.00;;;;;;5010044;28;20494;-72
2021/09/20 08:30:42;;;;;;;1.77;1.70;;;15.60;98.00;;;;;;5009735;28;21060;-72
2021/09/20 08:33:09;;;;;;;1.93;1.63;;;15.70;98.00;;;;;;5009897;28;20462;-70
2021/09/20 08:35:37;;;;;;;1.70;1.67;;;15.60;98.00;;;;;;5009863;28;20490;-69
2021/09/20 08:38:07;;;;;;;1.83;1.70;;;15.60;98.00;;;;;;5008628;28;20509;-73
2021/09/20 08:40:37;;;;;;;1.60;1.60;;;15.70;98.00;;;;;;5009159;28;20457;-72
2021/09/20 08:43:05;;;;;;;1.90;1.60;;;15.80;98.00;;;;;;5013174;28;20453;-72
2021/09/20 08:45:32;;;;;;;1.77;1.47;;;15.80;98.00;;;;;;5009485;28;20962;-72
2021/09/20 08:48:03;;;;;;;2.03;1.73;;;15.80;98.00;;;;;;5009426;28;20459;-72
2021/09/20 08:50:34;;;;;;;1.30;1.23;;;15.80;98.00;;;;;;5005943;28;21031;-73
2021/09/20 08:53:04;;;;;;;1.97;1.30;;;15.90;98.00;;;;;;5009377;28;20485;-73
2021/09/20 08:55:32;;;;;;;1.50;1.30;;;15.80;98.00;;;;;;5014653;28;20469;-72
2021/09/20 08:57:59;;;;;;;1.83;1.67;;;15.80;98.00;;;;;;5027178;28;20476;-72
2021/09/20 09:00:27;;;;;;;1.90;1.57;;;15.80;98.00;;;;;;5018897;28;20902;-72
2021/09/20 09:02:55;;;;;;;1.20;1.10;;;16.00;98.00;;;;;;5006629;28;20880;-73
2021/09/20 09:05:24;;;;;;;1.97;1.30;;;16.30;98.00;;;;;;5008948;28;20829;-73
2021/09/20 09:07:54;;;;;;;1.60;1.27;;;16.40;98.00;;;;;;4997583;28;20471;-72
2021/09/20 09:10:26;;;;;;;1.67;1.50;;;16.50;98.00;;;;;;5013532;28;21104;-73
2021/09/20 09:12:53;;;;;;;2.70;2.03;;;16.60;98.00;;;;;;5009505;28;20455;-71
2021/09/20 09:15:22;;;;;;;1.53;1.50;;;16.50;98.00;;;;;;5010321;28;20497;-72
2021/09/20 09:17:53;;;;;;;3.53;1.73;;;16.60;98.00;;;;;;5011350;28;20462;-72
2021/09/20 09:20:23;;;;;;;1.70;1.60;;;16.70;98.00;;;;;;5009519;28;20459;-69
2021/09/20 09:22:55;;;;;;;2.30;1.67;;;16.80;98.00;;;;;;5008920;28;20458;-71
2021/09/20 09:25:25;;;;;;;2.30;1.40;;;16.90;98.00;;;;;;5027450;28;20953;-70
2021/09/20 09:27:55;;;;;;;2.77;1.87;;;17.00;98.00;;;;;;5018456;28;20518;-71
2021/09/20 09:30:44;;;;;;;1.40;1.40;;;17.00;98.00;;;;;;5018643;28;20497;-70
2021/09/20 09:33:14;;;;;;;1.67;1.40;;;17.10;98.00;;;;;;5016570;28;20519;-70
2021/09/20 09:35:45;;;;;;;1.70;1.60;;;17.10;98.00;;;;;;5018863;28;20454;-71
2021/09/20 09:38:12;;;;;;;1.77;1.50;;;17.10;98.00;;;;;;5016691;28;20937;-70
2021/09/20 09:40:52;;;;;;;1.80;1.77;;;17.20;98.00;;;;;;5026210;28;20501;-71
2021/09/20 09:43:23;;;;;;;1.50;1.30;;;17.30;98.00;;;;;;5014044;28;20463;-69
2021/09/20 09:45:51;;;;;;;2.13;1.67;;;17.40;98.00;;;;;;5019528;28;20451;-70
2021/09/20 09:48:21;;;;;;;1.37;1.37;;;17.40;98.00;;;;;;5014913;28;20982;-71
2021/09/20 09:50:51;;;;;;;1.50;1.47;;;17.30;98.00;;;;;;5018334;28;20491;-70
2021/09/20 09:53:28;;;;;;;1.70;1.63;;;17.40;98.00;;;;;;5015371;28;20490;-70
2021/09/20 09:55:59;;;;;;;1.93;1.77;;;17.40;98.00;;;;;;5011626;28;20506;-69
2021/09/20 09:58:29;;;;;;;2.23;1.40;;;17.50;98.00;;;;;;5025795;28;20462;-70
2021/09/20 10:01:14;;;;;;;2.37;1.67;;;17.30;98.00;;;;;;5018224;28;20531;-69
2021/09/20 10:04:03;;;;;;;1.20;1.10;;;17.00;98.00;;;;;;5026830;28;20486;-71
2021/09/20 10:06:45;;;;;;;2.13;1.63;;;17.00;98.00;;;;;;5010775;28;20459;-70
2021/09/20 10:09:14;;;;;;;3.70;1.50;;;16.90;98.00;;;;;;5022164;28;20519;-70
2021/09/20 10:11:47;;;;;;;1.40;1.30;;;16.80;98.00;;;;;;5015207;28;20784;-69
2021/09/20 10:14:15;;;;;;;1.87;1.77;;;16.90;98.00;;;;;;5027391;28;20451;-69
2021/09/20 10:16:42;;;;;;;1.63;1.37;;;16.80;98.00;;;;;;5018199;28;20513;-71
2021/09/20 10:19:09;;;;;;;2.23;1.83;;;16.70;98.00;;;;;;5021545;28;20487;-70
2021/09/20 10:21:36;;;;;;;2.10;1.63;;;16.60;98.00;;;;;;5026431;28;20458;-69
2021/09/20 10:24:04;;;;;;;1.40;1.27;;;16.70;98.00;;;;;;5025733;28;20455;-69
2021/09/20 10:26:32;;;;;;;1.37;1.33;;;16.60;98.00;;;;;;5013500;28;20543;-71
2021/09/20 10:29:02;;;;;;;1.63;1.57;;;16.60;98.00;;;;;;5018416;28;20570;-71
2021/09/20 10:31:32;;;;;;;1.50;1.40;;;16.60;98.00;;;;;;5021409;28;20512;-69
2021/09/20 10:34:25;;;;;;;1.70;1.53;;;16.70;98.00;;;;;;5025085;28;20965;-71
2021/09/20 10:36:54;;;;;;;1.70;1.50;;;16.80;98.00;;;;;;5021935;28;20455;-70
2021/09/20 10:39:45;;;;;;;1.90;1.47;;;16.90;98.00;;;;;;5021516;28;20559;-72
2021/09/20 10:42:12;;;;;;;2.20;1.67;;;16.90;98.00;;;;;;5023427;28;20552;-71
2021/09/20 10:44:41;;;;;;;1.40;1.30;;;16.90;98.00;;;;;;5029563;28;21970;-72
2021/09/20 10:47:16;;;;;;;1.63;1.60;;;16.80;98.00;;;;;;5029611;28;20491;-69
2021/09/20 10:49:50;;;;;;;4.00;1.97;;;16.70;98.00;;;;;;5026071;28;20505;-70
2021/09/20 10:52:18;;;;;;;1.50;1.33;;;16.70;98.00;;;;;;5012249;28;20544;-69
2021/09/20 10:55:06;;;;;;;1.60;1.40;;;16.60;98.00;;;;;;5028918;28;20877;-72
2021/09/20 10:57:33;;;;;;;2.13;1.60;;;16.60;98.00;;;;;;5006906;28;20455;-70
2021/09/20 11:00:23;;;;;;;1.40;1.27;;;16.60;98.00;;;;;;5028012;28;20461;-69
2021/09/20 11:02:51;;;;;;;1.83;1.50;;;16.70;98.00;;;;;;5021456;28;20490;-70
2021/09/20 11:05:26;;;;;;;1.73;1.63;;;16.60;98.00;;;;;;4995502;28;20535;-70
2021/09/20 11:07:53;;;;;;;2.23;1.87;;;16.70;98.00;;;;;;5016957;28;20933;-70
2021/09/20 11:10:30;;;;;;;1.50;1.30;;;16.70;98.00;;;;;;5012666;28;21315;-70
2021/09/20 11:12:59;;;;;;;1.77;1.47;;;16.80;98.00;;;;;;5020639;28;21036;-70
2021/09/20 11:15:38;;;;;;;3.73;1.80;;;16.80;98.00;;;;;;5029534;28;20462;-70
2021/09/20 11:18:06;;;;;;;3.47;1.83;;;16.90;98.00;;;;;;5003664;28;20470;-68
2021/09/20 11:20:38;;;;;;;1.70;1.60;;;16.80;98.00;;;;;;5015214;28;20455;-69
2021/09/20 11:23:22;;;;;;;1.87;1.57;;;17.00;98.00;;;;;;5011873;28;20523;-70
2021/09/20 11:26:13;;;;;;;2.37;1.77;;;17.10;98.00;;;;;;5016158;28;21056;-70
2021/09/20 11:28:43;;;;;;;1.90;1.40;;;17.10;98.00;;;;;;5028257;28;20462;-71
2021/09/20 11:31:12;;;;;;;2.60;1.40;;;17.20;98.00;;;;;;5027832;28;20930;-69
2021/09/20 11:33:41;;;;;;;1.60;1.50;;;17.10;98.00;;;;;;5020812;28;20454;-69
2021/09/20 11:36:35;;;;;;;1.60;1.50;;;17.10;98.00;;;;;;5003526;28;20537;-70
2021/09/20 11:39:22;;;;;;;1.63;1.60;;;17.10;98.00;;;;;;5007148;28;20456;-70
2021/09/20 11:41:58;;;;;;;1.60;1.43;;;17.10;98.00;;;;;;5008723;28;20456;-69
2021/09/20 11:44:28;;;;;;;1.40;1.40;;;17.10;98.00;;;;;;5012669;28;20458;-70
2021/09/20 11:46:58;;;;;;;1.70;1.60;;;17.20;98.00;;;;;;4999911;28;20473;-69
2021/09/20 11:49:28;;;;;;;1.97;1.60;;;17.20;98.00;;;;;;5016746;28;20480;-70
2021/09/20 11:51:56;;;;;;;1.40;1.40;;;17.30;98.00;;;;;;5028923;28;20961;-69
2021/09/20 11:54:33;;;;;;;1.50;1.50;;;17.30;98.00;;;;;;5028118;28;20810;-70
2021/09/20 11:57:18;;;;;;;1.67;1.50;;;17.50;98.00;;;;;;5028581;28;20844;-69
2021/09/20 11:59:45;;;;;;;1.60;1.40;;;17.60;98.00;;;;;;4994495;28;20490;-71
2021/09/20 12:05:20;;;;;;;1.30;1.30;;;17.50;98.00;;;;;;5147403;27;20939;-70
2021/09/20 12:07:51;;;;;;;2.43;1.77;;;17.50;98.00;;;;;;5124960;27;20515;-69
2021/09/20 12:10:20;;;;;;;2.57;1.40;;;17.40;98.00;;;;;;5126819;28;20480;-69
2021/09/20 12:12:50;;;;;;;1.60;1.53;;;17.40;98.00;;;;;;5126990;28;20462;-69
2021/09/20 12:15:20;;;;;;;1.77;1.43;;;17.40;98.00;;;;;;5126958;28;20458;-69
2021/09/20 12:17:53;;;;;;;2.70;1.60;;;17.50;98.00;;;;;;5126822;28;20466;-70
2021/09/20 12:20:24;;;;;;;1.70;1.30;;;17.50;98.00;;;;;;5127044;28;20458;-69
2021/09/20 12:22:53;;;;;;;3.63;2.27;;;17.50;98.00;;;;;;5126780;28;21017;-69
2021/09/20 12:25:43;;;;;;;1.60;1.60;;;17.70;98.00;;;;;;5125635;28;20458;-70
2021/09/20 12:28:22;;;;;;;1.20;1.10;;;17.80;98.00;;;;;;5127661;27;20454;-67
2021/09/20 12:31:03;;;;;;;2.40;1.70;;;18.00;98.00;;;;;;5129644;28;20458;-66
2021/09/20 12:33:32;;;;;;;2.33;1.73;;;18.00;98.00;;;;;;5129032;28;20533;-67
2021/09/20 12:36:00;;;;;;;1.20;1.20;;;17.90;98.00;;;;;;5129421;28;20450;-67
2021/09/20 12:38:35;;;;;;;1.50;1.47;;;18.10;98.00;;;;;;5127711;28;20482;-66
2021/09/20 12:41:13;;;;;;;2.70;1.90;;;18.10;98.00;;;;;;5129453;28;20490;-67
2021/09/20 12:43:41;;;;;;;1.93;1.70;;;18.20;98.00;;;;;;5129132;28;20477;-67
2021/09/20 12:46:10;;;;;;;2.03;1.60;;;18.30;98.00;;;;;;5129045;28;20454;-67
2021/09/20 12:48:39;;;;;;;1.80;1.43;;;18.40;98.00;;;;;;5129108;28;20507;-67
2021/09/20 12:51:10;;;;;;;2.70;1.87;;;18.50;98.00;;;;;;5129186;28;20458;-67
2021/09/20 12:53:41;;;;;;;2.53;1.73;;;18.60;98.00;;;;;;5128594;28;20462;-67
2021/09/20 12:56:10;;;;;;;2.43;1.80;;;18.70;98.00;;;;;;5128942;28;20463;-67
2021/09/20 12:58:38;;;;;;;1.63;1.60;;;18.80;98.00;;;;;;5128671;28;20450;-67
2021/09/20 13:01:08;;;;;;;1.87;1.73;;;18.80;98.00;;;;;;5128868;27;20980;-67